| time (UTC) | temp C | wind direction | speed KPH | gust KPH | rain 1hr cm | rain 24hr cm | rain mn cm | humidity % | barometer mb |
| 20260509053519 | 11 | 175 | 4.8 | 4.8 | 0.00 | 0.00 | 0.00 | 95 | 1007.6 |
| 20260509053016 | 11 | 188 | 4.8 | 4.8 | 0.00 | 0.00 | 0.00 | 95 | 1007.9 |
| 20260509052514 | 11 | 165 | 3.2 | 6.4 | 0.00 | 0.00 | 0.00 | 94 | 1007.6 |
| 20260509052012 | 11 | 171 | 3.2 | 3.2 | 0.00 | 0.00 | 0.00 | 94 | 1007.7 |
| 20260509051509 | 11 | 184 | 3.2 | 4.8 | 0.00 | 0.00 | 0.00 | 94 | 1007.7 |
| 20260509051006 | 11 | 165 | 3.2 | 4.8 | 0.00 | 0.00 | 0.00 | 94 | 1008.0 |
| 20260509050502 | 11 | 160 | 3.2 | 4.8 | 0.00 | 0.00 | 0.00 | 94 | 1007.8 |
| 20260509045959 | 11 | 157 | 6.4 | 6.4 | 0.00 | 0.00 | 0.00 | 93 | 1007.8 |
| 20260509045456 | 11 | 162 | 3.2 | 6.4 | 0.00 | 0.00 | 0.00 | 93 | 1007.9 |
| 20260509044953 | 11 | 153 | 6.4 | 6.4 | 0.00 | 0.00 | 0.00 | 93 | 1007.9 |
| 20260509044451 | 11 | 156 | 4.8 | 4.8 | 0.00 | 0.00 | 0.00 | 93 | 1007.8 |
| 20260509043948 | 11 | 166 | 4.8 | 4.8 | 0.00 | 0.00 | 0.00 | 91 | 1007.8 |
| 20260509043444 | 11 | 166 | 4.8 | 4.8 | 0.00 | 0.00 | 0.00 | 91 | 1007.8 |
| 20260509042939 | 11 | 166 | 4.8 | 4.8 | 0.00 | 0.00 | 0.00 | 91 | 1008.0 |
| 20260509042436 | 11 | 166 | 4.8 | 4.8 | 0.00 | 0.00 | 0.00 | 91 | 1007.9 |
| 20260509041933 | 11 | 166 | 4.8 | 4.8 | 0.00 | 0.00 | 0.00 | 91 | 1007.8 |
| 20260509041430 | 11 | 166 | 4.8 | 4.8 | 0.00 | 0.00 | 0.00 | 91 | 1008.0 |
| 20260509040928 | 11 | 166 | 4.8 | 4.8 | 0.00 | 0.00 | 0.00 | 91 | 1007.9 |
| 20260509040426 | 11 | 192 | 3.2 | 6.4 | 0.00 | 0.00 | 0.00 | 91 | 1008.2 |
| 20260509035922 | 11 | 188 | 3.2 | 4.8 | 0.00 | 0.23 | 0.23 | 91 | 1007.9 |
| 20260509035419 | 11 | 175 | 3.2 | 4.8 | 0.00 | 0.23 | 0.23 | 91 | 1007.9 |
| 20260509034915 | 12 | 168 | 3.2 | 4.8 | 0.00 | 0.23 | 0.23 | 91 | 1008.2 |
| 20260509034414 | 12 | 173 | 3.2 | 6.4 | 0.00 | 0.23 | 0.23 | 91 | 1008.2 |
| 20260509033910 | 12 | 150 | 4.8 | 4.8 | 0.00 | 0.23 | 0.23 | 90 | 1008.2 |
| 20260509033407 | 12 | 172 | 3.2 | 3.2 | 0.00 | 0.23 | 0.23 | 91 | 1008.3 |
| 20260509032904 | 12 | 174 | 3.2 | 3.2 | 0.00 | 0.23 | 0.23 | 90 | 1008.3 |
| 20260509032401 | 12 | 200 | 3.2 | 4.8 | 0.00 | 0.23 | 0.23 | 90 | 1008.4 |
| 20260509031859 | 12 | 187 | 4.8 | 4.8 | 0.00 | 0.23 | 0.23 | 90 | 1008.5 |
| 20260509031356 | 12 | 167 | 1.6 | 3.2 | 0.00 | 0.23 | 0.23 | 89 | 1008.4 |
| 20260509030854 | 12 | 189 | 3.2 | 3.2 | 0.00 | 0.23 | 0.23 | 89 | 1008.5 |
| 20260509030351 | 12 | 195 | 3.2 | 3.2 | 0.00 | 0.23 | 0.23 | 88 | 1008.4 |
| 20260509025848 | 12 | 220 | 3.2 | 3.2 | 0.00 | 0.23 | 0.23 | 87 | 1008.4 |
| 20260509025343 | 12 | 220 | 3.2 | 3.2 | 0.00 | 0.23 | 0.23 | 87 | 1008.6 |
| 20260509024839 | 12 | 221 | 3.2 | 4.8 | 0.00 | 0.23 | 0.23 | 87 | 1008.7 |
| 20260509024335 | 12 | 209 | 3.2 | 4.8 | 0.00 | 0.23 | 0.23 | 86 | 1008.6 |
| 20260509023833 | 12 | 197 | 3.2 | 3.2 | 0.00 | 0.23 | 0.23 | 86 | 1008.5 |
| 20260509023330 | 13 | 197 | 3.2 | 3.2 | 0.05 | 0.23 | 0.23 | 85 | 1008.5 |
| 20260509022827 | 13 | 197 | 3.2 | 3.2 | 0.05 | 0.23 | 0.23 | 85 | 1008.6 |
| 20260509022324 | 13 | 197 | 3.2 | 3.2 | 0.00 | 0.23 | 0.23 | 85 | 1008.6 |
| 20260509021820 | 13 | 197 | 3.2 | 3.2 | 0.00 | 0.23 | 0.23 | 85 | 1008.5 |
| 20260509021318 | 13 | 195 | 3.2 | 4.8 | 0.00 | 0.23 | 0.23 | 85 | 1008.6 |
| 20260509020815 | 13 | 193 | 3.2 | 3.2 | 0.00 | 0.23 | 0.23 | 85 | 1008.5 |
| 20260509020313 | 13 | 210 | 3.2 | 3.2 | 0.00 | 0.23 | 0.23 | 85 | 1008.6 |
| 20260509015811 | 13 | 216 | 4.8 | 6.4 | 0.00 | 0.23 | 0.23 | 84 | 1008.4 |
| 20260509015309 | 13 | 232 | 11.3 | 12.9 | 0.00 | 0.23 | 0.23 | 83 | 1008.4 |
| 20260509014805 | 13 | 232 | 11.3 | 12.9 | 0.00 | 0.23 | 0.23 | 83 | 1008.4 |
| 20260509014302 | 13 | 232 | 11.3 | 12.9 | 0.00 | 0.23 | 0.23 | 83 | 1008.5 |
| 20260509013758 | 13 | 222 | 9.7 | 17.7 | 0.00 | 0.23 | 0.23 | 82 | 1008.4 |
| 20260509013254 | 13 | 215 | 9.7 | 14.5 | 0.00 | 0.23 | 0.23 | 83 | 1008.3 |
| 20260509012751 | 13 | 223 | 8.0 | 9.7 | 0.00 | 0.23 | 0.23 | 83 | 1008.4 |
| 20260509012248 | 13 | 228 | 8.0 | 12.9 | 0.00 | 0.23 | 0.23 | 83 | 1008.4 |
| 20260509011745 | 13 | 209 | 4.8 | 8.0 | 0.00 | 0.23 | 0.23 | 83 | 1008.2 |
| 20260509011243 | 13 | 220 | 4.8 | 6.4 | 0.00 | 0.23 | 0.23 | 83 | 1008.1 |
| 20260509010740 | 13 | 209 | 6.4 | 8.0 | 0.00 | 0.23 | 0.23 | 82 | 1008.1 |
| 20260509010237 | 13 | 242 | 8.0 | 11.3 | 0.00 | 0.23 | 0.23 | 81 | 1008.1 |
| 20260509005735 | 13 | 242 | 8.0 | 11.3 | 0.00 | 0.23 | 0.23 | 81 | 1007.9 |
| 20260509005232 | 13 | 242 | 8.0 | 11.3 | 0.00 | 0.23 | 0.23 | 81 | 1007.9 |
| 20260509004731 | 13 | 242 | 8.0 | 11.3 | 0.00 | 0.23 | 0.23 | 81 | 1008.1 |
| 20260509004229 | 13 | 203 | 6.4 | 12.9 | 0.00 | 0.23 | 0.23 | 81 | 1008.1 |
| 20260509003727 | 13 | 229 | 6.4 | 8.0 | 0.00 | 0.23 | 0.23 | 81 | 1008.2 |
| 20260509003224 | 14 | 218 | 8.0 | 9.7 | 0.00 | 0.23 | 0.23 | 81 | 1007.9 |
| 20260509002721 | 14 | 225 | 9.7 | 9.7 | 0.00 | 0.23 | 0.23 | 81 | 1007.8 |
| 20260509002219 | 14 | 203 | 11.3 | 16.1 | 0.00 | 0.23 | 0.23 | 80 | 1007.9 |
| 20260509001717 | 15 | 217 | 12.9 | 17.7 | 0.00 | 0.23 | 0.23 | 80 | 1008.0 |
| 20260509001212 | 15 | 232 | 12.9 | 17.7 | 0.00 | 0.23 | 0.23 | 79 | 1008.0 |
| 20260509000711 | 15 | 211 | 14.5 | 16.1 | 0.00 | 0.23 | 0.23 | 78 | 1007.8 |
| 20260509000207 | 15 | 223 | 8.0 | 8.0 | 0.00 | 0.23 | 0.23 | 77 | 1007.9 |
| 20260508235704 | 15 | 212 | 6.4 | 6.4 | 0.00 | 0.23 | 0.23 | 78 | 1007.9 |
| 20260508235201 | 15 | 212 | 6.4 | 9.7 | 0.00 | 0.23 | 0.23 | 78 | 1008.0 |
| 20260508234658 | 15 | 218 | 8.0 | 12.9 | 0.00 | 0.23 | 0.23 | 77 | 1008.0 |
| 20260508234154 | 15 | 208 | 8.0 | 9.7 | 0.00 | 0.23 | 0.23 | 78 | 1008.3 |
| 20260508233654 | 15 | 299 | 3.2 | 6.4 | 0.00 | 0.23 | 0.23 | 77 | 1008.0 |
| 20260508233151 | 15 | 209 | 9.7 | 11.3 | 0.00 | 0.23 | 0.23 | 76 | 1008.0 |
| 20260508232648 | 15 | 219 | 12.9 | 19.3 | 0.00 | 0.23 | 0.23 | 76 | 1007.8 |
| 20260508232145 | 15 | 212 | 4.8 | 14.5 | 0.00 | 0.23 | 0.23 | 76 | 1008.0 |
| 20260508231643 | 15 | 231 | 14.5 | 17.7 | 0.00 | 0.23 | 0.23 | 75 | 1008.0 |
| 20260508231139 | 15 | 222 | 16.1 | 20.9 | 0.00 | 0.23 | 0.23 | 75 | 1008.3 |
| 20260508230636 | 15 | 233 | 14.5 | 22.5 | 0.00 | 0.23 | 0.23 | 75 | 1008.0 |
| 20260508230133 | 15 | 219 | 12.9 | 16.1 | 0.00 | 0.23 | 0.23 | 75 | 1008.1 |
| 20260508225631 | 15 | 224 | 16.1 | 20.9 | 0.00 | 0.23 | 0.23 | 74 | 1008.1 |
| 20260508225126 | 15 | 227 | 9.7 | 16.1 | 0.00 | 0.23 | 0.23 | 74 | 1008.2 |
| 20260508224624 | 15 | 239 | 12.9 | 27.4 | 0.00 | 0.23 | 0.23 | 73 | 1008.2 |
| 20260508224122 | 15 | 209 | 9.7 | 24.1 | 0.00 | 0.23 | 0.23 | 74 | 1008.1 |
| 20260508223619 | 15 | 227 | 17.7 | 19.3 | 0.00 | 0.23 | 0.23 | 72 | 1008.1 |
| 20260508223116 | 15 | 236 | 14.5 | 16.1 | 0.00 | 0.23 | 0.23 | 71 | 1008.1 |
| 20260508222613 | 15 | 214 | 17.7 | 22.5 | 0.05 | 0.23 | 0.23 | 71 | 1008.1 |
| 20260508222110 | 15 | 220 | 22.5 | 22.5 | 0.05 | 0.23 | 0.23 | 71 | 1007.9 |
| 20260508221607 | 15 | 238 | 14.5 | 27.4 | 0.00 | 0.23 | 0.23 | 70 | 1008.1 |
| 20260508221103 | 15 | 209 | 19.3 | 24.1 | 0.00 | 0.23 | 0.23 | 72 | 1008.1 |
| 20260508220559 | 15 | 217 | 6.4 | 11.3 | 0.00 | 0.23 | 0.23 | 73 | 1008.4 |
| 20260508220055 | 15 | 220 | 12.9 | 14.5 | 0.00 | 0.23 | 0.23 | 73 | 1008.2 |
| 20260508215553 | 15 | 238 | 20.9 | 22.5 | 0.00 | 0.23 | 0.23 | 72 | 1008.3 |
| 20260508215049 | 15 | 230 | 6.4 | 8.0 | 0.00 | 0.23 | 0.23 | 74 | 1008.1 |
| 20260508214547 | 15 | 198 | 9.7 | 11.3 | 0.00 | 0.23 | 0.23 | 73 | 1008.3 |
| 20260508214043 | 15 | 195 | 6.4 | 17.7 | 0.00 | 0.23 | 0.23 | 73 | 1008.2 |
| 20260508213541 | 15 | 214 | 17.7 | 20.9 | 0.00 | 0.23 | 0.23 | 73 | 1008.1 |
| 20260508213036 | 15 | 218 | 16.1 | 19.3 | 0.00 | 0.23 | 0.23 | 71 | 1008.4 |
| 20260508212533 | 15 | 213 | 16.1 | 19.3 | 0.00 | 0.23 | 0.23 | 71 | 1008.4 |
| 20260508212029 | 15 | 222 | 11.3 | 16.1 | 0.00 | 0.23 | 0.23 | 71 | 1008.3 |
| 20260508211525 | 15 | 229 | 9.7 | 20.9 | 0.00 | 0.23 | 0.23 | 71 | 1008.4 |
| 20260508211022 | 15 | 235 | 17.7 | 20.9 | 0.00 | 0.23 | 0.23 | 70 | 1008.2 |
| 20260508210518 | 15 | 249 | 12.9 | 20.9 | 0.00 | 0.23 | 0.23 | 69 | 1008.2 |
| 20260508210016 | 15 | 260 | 12.9 | 16.1 | 0.00 | 0.23 | 0.23 | 70 | 1008.4 |
| 20260508205512 | 15 | 197 | 6.4 | 9.7 | 0.00 | 0.23 | 0.23 | 72 | 1008.3 |
| 20260508205008 | 15 | 180 | 6.4 | 9.7 | 0.00 | 0.23 | 0.23 | 70 | 1008.5 |
| 20260508204506 | 15 | 183 | 8.0 | 9.7 | 0.00 | 0.23 | 0.23 | 70 | 1008.6 |
| 20260508204001 | 15 | 186 | 4.8 | 6.4 | 0.00 | 0.23 | 0.23 | 68 | 1008.6 |
| 20260508203457 | 15 | 157 | 8.0 | 9.7 | 0.00 | 0.23 | 0.23 | 71 | 1008.7 |
| 20260508202953 | 15 | 194 | 3.2 | 8.0 | 0.00 | 0.23 | 0.23 | 69 | 1008.9 |
| 20260508202451 | 15 | 196 | 6.4 | 8.0 | 0.00 | 0.23 | 0.23 | 70 | 1008.9 |
| 20260508201948 | 15 | 192 | 6.4 | 8.0 | 0.00 | 0.23 | 0.23 | 68 | 1009.0 |
| 20260508201444 | 15 | 211 | 4.8 | 9.7 | 0.05 | 0.23 | 0.23 | 67 | 1009.0 |
| 20260508200941 | 15 | 195 | 6.4 | 9.7 | 0.05 | 0.23 | 0.23 | 71 | 1009.1 |
| 20260508200439 | 16 | 198 | 6.4 | 11.3 | 0.00 | 0.20 | 0.20 | 66 | 1009.2 |
| 20260508195938 | 16 | 196 | 9.7 | 9.7 | 0.00 | 0.20 | 0.20 | 67 | 1009.2 |
| 20260508195436 | 15 | 194 | 6.4 | 11.3 | 0.00 | 0.20 | 0.20 | 67 | 1009.1 |
| 20260508194932 | 15 | 185 | 4.8 | 8.0 | 0.00 | 0.20 | 0.20 | 69 | 1009.3 |
| 20260508194429 | 15 | 174 | 6.4 | 9.7 | 0.00 | 0.20 | 0.20 | 71 | 1009.4 |
| 20260508193926 | 15 | 210 | 4.8 | 8.0 | 0.00 | 0.20 | 0.20 | 73 | 1009.6 |
| 20260508193423 | 14 | 150 | 4.8 | 8.0 | 0.00 | 0.20 | 0.20 | 74 | 1009.5 |
| 20260508192919 | 15 | 161 | 9.7 | 9.7 | 0.00 | 0.20 | 0.20 | 74 | 1009.7 |
| 20260508192417 | 15 | 202 | 4.8 | 8.0 | 0.00 | 0.20 | 0.20 | 73 | 1009.7 |
| 20260508191913 | 15 | 152 | 3.2 | 3.2 | 0.00 | 0.20 | 0.20 | 77 | 1009.9 |
| 20260508191411 | 14 | 130 | 3.2 | 4.8 | 0.00 | 0.20 | 0.20 | 78 | 1010.0 |
| 20260508190908 | 13 | 196 | 3.2 | 4.8 | 0.00 | 0.20 | 0.20 | 79 | 1009.9 |
| 20260508190405 | 13 | 193 | 1.6 | 6.4 | 0.00 | 0.20 | 0.20 | 79 | 1010.2 |
| 20260508185901 | 13 | 180 | 3.2 | 4.8 | 0.00 | 0.20 | 0.20 | 80 | 1010.4 |
| 20260508185359 | 13 | 0 | 0.0 | 0.0 | 0.00 | 0.20 | 0.20 | 80 | 1010.5 |
| 20260508184855 | 13 | 239 | 1.6 | 3.2 | 0.00 | 0.20 | 0.20 | 81 | 1010.5 |
| 20260508184353 | 13 | 162 | 3.2 | 4.8 | 0.00 | 0.20 | 0.20 | 82 | 1010.5 |
| 20260508183849 | 13 | 172 | 3.2 | 6.4 | 0.00 | 0.20 | 0.20 | 82 | 1010.9 |
| 20260508183346 | 12 | 167 | 3.2 | 4.8 | 0.00 | 0.20 | 0.20 | 82 | 1010.7 |
| 20260508182842 | 12 | 177 | 3.2 | 6.4 | 0.00 | 0.20 | 0.20 | 82 | 1010.7 |
| 20260508182339 | 12 | 198 | 6.4 | 8.0 | 0.00 | 0.20 | 0.20 | 82 | 1010.9 |
| 20260508181834 | 12 | 181 | 6.4 | 9.7 | 0.05 | 0.20 | 0.20 | 82 | 1010.9 |
| 20260508181331 | 12 | 174 | 6.4 | 6.4 | 0.05 | 0.20 | 0.20 | 83 | 1010.9 |
| 20260508180828 | 12 | 171 | 4.8 | 6.4 | 0.00 | 0.20 | 0.20 | 82 | 1011.0 |
| 20260508180325 | 12 | 202 | 3.2 | 4.8 | 0.00 | 0.20 | 0.20 | 82 | 1010.9 |
| 20260508175821 | 12 | 205 | 6.4 | 6.4 | 0.00 | 0.20 | 0.20 | 82 | 1010.7 |
| 20260508175318 | 12 | 218 | 3.2 | 8.0 | 0.00 | 0.20 | 0.20 | 81 | 1011.0 |
| 20260508174816 | 12 | 172 | 4.8 | 6.4 | 0.00 | 0.20 | 0.20 | 82 | 1011.1 |
| 20260508174313 | 12 | 169 | 4.8 | 4.8 | 0.00 | 0.20 | 0.20 | 82 | 1011.3 |
| 20260508173809 | 12 | 189 | 3.2 | 6.4 | 0.00 | 0.20 | 0.20 | 81 | 1011.4 |
| 20260508173307 | 12 | 191 | 4.8 | 6.4 | 0.00 | 0.20 | 0.20 | 82 | 1011.6 |
| 20260508172802 | 12 | 176 | 4.8 | 6.4 | 0.00 | 0.20 | 0.20 | 82 | 1011.5 |
| 20260508172300 | 12 | 208 | 3.2 | 4.8 | 0.00 | 0.20 | 0.20 | 82 | 1011.6 |
| 20260508171755 | 12 | 195 | 3.2 | 6.4 | 0.00 | 0.20 | 0.20 | 82 | 1011.5 |
| 20260508171252 | 12 | 188 | 4.8 | 8.0 | 0.00 | 0.20 | 0.20 | 82 | 1011.5 |
| 20260508170749 | 12 | 220 | 6.4 | 9.7 | 0.00 | 0.20 | 0.20 | 83 | 1011.6 |
| 20260508170247 | 12 | 202 | 9.7 | 9.7 | 0.00 | 0.20 | 0.20 | 82 | 1011.8 |
| 20260508165744 | 12 | 220 | 6.4 | 9.7 | 0.00 | 0.20 | 0.20 | 82 | 1011.7 |
| 20260508165241 | 12 | 174 | 6.4 | 8.0 | 0.00 | 0.20 | 0.20 | 81 | 1011.8 |
| 20260508164737 | 12 | 208 | 4.8 | 9.7 | 0.00 | 0.20 | 0.20 | 82 | 1011.8 |
| 20260508164234 | 12 | 228 | 8.0 | 9.7 | 0.00 | 0.20 | 0.20 | 83 | 1011.9 |
| 20260508163732 | 12 | 231 | 9.7 | 12.9 | 0.00 | 0.20 | 0.20 | 81 | 1012.1 |
| 20260508163229 | 12 | 219 | 9.7 | 14.5 | 0.00 | 0.20 | 0.20 | 81 | 1012.2 |
| 20260508162725 | 12 | 204 | 6.4 | 12.9 | 0.05 | 0.20 | 0.20 | 81 | 1012.2 |
| 20260508162222 | 12 | 228 | 12.9 | 14.5 | 0.05 | 0.20 | 0.20 | 82 | 1012.3 |
| 20260508161719 | 12 | 229 | 12.9 | 16.1 | 0.00 | 0.18 | 0.18 | 80 | 1012.4 |
| 20260508161216 | 12 | 238 | 6.4 | 9.7 | 0.00 | 0.18 | 0.18 | 82 | 1012.2 |
| 20260508160714 | 12 | 219 | 6.4 | 11.3 | 0.00 | 0.18 | 0.18 | 82 | 1012.3 |
| 20260508160212 | 12 | 220 | 11.3 | 14.5 | 0.00 | 0.18 | 0.18 | 83 | 1012.3 |
| 20260508155708 | 12 | 220 | 11.3 | 16.1 | 0.00 | 0.18 | 0.18 | 83 | 1012.3 |
| 20260508155206 | 12 | 227 | 9.7 | 12.9 | 0.00 | 0.18 | 0.18 | 84 | 1012.2 |
| 20260508154703 | 12 | 238 | 9.7 | 12.9 | 0.00 | 0.18 | 0.18 | 84 | 1012.1 |
| 20260508154159 | 12 | 233 | 11.3 | 17.7 | 0.00 | 0.18 | 0.18 | 85 | 1012.3 |
| 20260508153656 | 12 | 222 | 9.7 | 17.7 | 0.00 | 0.18 | 0.18 | 86 | 1012.2 |
| 20260508153153 | 12 | 211 | 12.9 | 16.1 | 0.00 | 0.18 | 0.18 | 86 | 1012.0 |
| 20260508152650 | 12 | 228 | 14.5 | 14.5 | 0.00 | 0.18 | 0.18 | 87 | 1012.0 |
| 20260508152145 | 11 | 197 | 11.3 | 16.1 | 0.05 | 0.18 | 0.18 | 87 | 1012.0 |
| 20260508151642 | 12 | 234 | 8.0 | 12.9 | 0.05 | 0.18 | 0.18 | 87 | 1011.9 |
| 20260508151139 | 12 | 206 | 12.9 | 14.5 | 0.00 | 0.18 | 0.18 | 88 | 1012.0 |
| 20260508150636 | 11 | 223 | 12.9 | 16.1 | 0.00 | 0.18 | 0.18 | 88 | 1012.1 |
| 20260508150132 | 11 | 236 | 11.3 | 11.3 | 0.00 | 0.18 | 0.18 | 89 | 1012.2 |
| 20260508145628 | 11 | 202 | 6.4 | 9.7 | 0.00 | 0.18 | 0.18 | 89 | 1012.3 |
| 20260508145125 | 11 | 214 | 6.4 | 9.7 | 0.00 | 0.18 | 0.18 | 89 | 1012.2 |
| 20260508144623 | 11 | 214 | 6.4 | 14.5 | 0.00 | 0.18 | 0.18 | 89 | 1012.1 |
| 20260508144120 | 11 | 226 | 11.3 | 14.5 | 0.00 | 0.18 | 0.18 | 90 | 1012.3 |
| 20260508143617 | 10 | 204 | 4.8 | 4.8 | 0.00 | 0.18 | 0.18 | 91 | 1012.5 |
| 20260508143114 | 10 | 236 | 11.3 | 11.3 | 0.00 | 0.18 | 0.18 | 91 | 1012.3 |
| 20260508142610 | 10 | 217 | 9.7 | 9.7 | 0.05 | 0.18 | 0.18 | 91 | 1012.6 |
| 20260508142107 | 10 | 199 | 3.2 | 6.4 | 0.05 | 0.18 | 0.18 | 91 | 1012.5 |
| 20260508141604 | 10 | 225 | 8.0 | 9.7 | 0.00 | 0.18 | 0.18 | 91 | 1012.5 |
| 20260508141102 | 10 | 222 | 4.8 | 6.4 | 0.00 | 0.18 | 0.18 | 90 | 1012.8 |
| 20260508140558 | 10 | 219 | 9.7 | 9.7 | 0.00 | 0.18 | 0.18 | 90 | 1012.9 |
| 20260508140055 | 10 | 224 | 6.4 | 8.0 | 0.00 | 0.18 | 0.18 | 88 | 1013.0 |
| 20260508135550 | 10 | 224 | 6.4 | 8.0 | 0.00 | 0.18 | 0.18 | 88 | 1012.9 |
| 20260508135047 | 10 | 224 | 6.4 | 8.0 | 0.00 | 0.18 | 0.18 | 88 | 1012.8 |
| 20260508134544 | 10 | 224 | 6.4 | 8.0 | 0.00 | 0.18 | 0.18 | 88 | 1012.9 |
| 20260508134041 | 10 | 224 | 6.4 | 8.0 | 0.00 | 0.18 | 0.18 | 88 | 1013.0 |
| 20260508133537 | 10 | 231 | 6.4 | 6.4 | 0.00 | 0.18 | 0.18 | 88 | 1012.7 |
| 20260508133035 | 10 | 231 | 6.4 | 6.4 | 0.05 | 0.18 | 0.18 | 88 | 1012.7 |
| 20260508132533 | 10 | 240 | 9.7 | 9.7 | 0.05 | 0.18 | 0.18 | 88 | 1012.4 |
| 20260508132029 | 10 | 240 | 9.7 | 9.7 | 0.00 | 0.15 | 0.15 | 88 | 1012.6 |
| 20260508131524 | 10 | 240 | 9.7 | 9.7 | 0.00 | 0.15 | 0.15 | 88 | 1012.7 |
| 20260508131021 | 10 | 217 | 6.4 | 9.7 | 0.00 | 0.15 | 0.15 | 88 | 1012.8 |
| 20260508130519 | 10 | 243 | 4.8 | 6.4 | 0.00 | 0.15 | 0.15 | 88 | 1012.9 |
| 20260508130015 | 9 | 219 | 1.6 | 3.2 | 0.00 | 0.15 | 0.15 | 89 | 1012.5 |
| 20260508125511 | 9 | 219 | 1.6 | 3.2 | 0.00 | 0.15 | 0.15 | 89 | 1012.5 |
| 20260508125009 | 9 | 219 | 1.6 | 3.2 | 0.05 | 0.15 | 0.15 | 89 | 1012.4 |
| 20260508124506 | 9 | 219 | 1.6 | 3.2 | 0.05 | 0.15 | 0.15 | 89 | 1012.5 |
| 20260508124003 | 9 | 219 | 1.6 | 3.2 | 0.00 | 0.15 | 0.15 | 89 | 1012.4 |
| 20260508123502 | 9 | 219 | 1.6 | 3.2 | 0.00 | 0.15 | 0.15 | 89 | 1012.5 |
| 20260508122958 | 9 | 247 | 3.2 | 8.0 | 0.00 | 0.15 | 0.15 | 89 | 1012.5 |
| 20260508122455 | 9 | 221 | 6.4 | 6.4 | 0.00 | 0.15 | 0.15 | 88 | 1012.7 |
| 20260508121952 | 9 | 230 | 8.0 | 8.0 | 0.00 | 0.15 | 0.15 | 88 | 1012.7 |
| 20260508121450 | 9 | 232 | 3.2 | 4.8 | 0.00 | 0.15 | 0.15 | 89 | 1012.6 |
| 20260508120948 | 8 | 233 | 8.0 | 9.7 | 0.00 | 0.15 | 0.15 | 89 | 1012.4 |
| 20260508120445 | 8 | 223 | 6.4 | 8.0 | 0.05 | 0.15 | 0.15 | 89 | 1012.4 |
| 20260508115943 | 8 | 227 | 4.8 | 4.8 | 0.05 | 0.15 | 0.15 | 89 | 1012.4 |
| 20260508115441 | 8 | 264 | 3.2 | 4.8 | 0.00 | 0.15 | 0.15 | 90 | 1012.2 |
| 20260508114937 | 8 | 264 | 3.2 | 9.7 | 0.00 | 0.15 | 0.15 | 90 | 1012.3 |
| 20260508114434 | 8 | 222 | 6.4 | 6.4 | 0.00 | 0.15 | 0.15 | 91 | 1012.3 |
| 20260508113930 | 8 | 237 | 6.4 | 8.0 | 0.00 | 0.15 | 0.15 | 90 | 1012.3 |
| 20260508113428 | 8 | 222 | 6.4 | 6.4 | 0.00 | 0.15 | 0.15 | 90 | 1012.4 |
| 20260508112925 | 8 | 214 | 4.8 | 4.8 | 0.00 | 0.15 | 0.15 | 90 | 1012.2 |
| 20260508112422 | 8 | 214 | 4.8 | 4.8 | 0.05 | 0.15 | 0.15 | 90 | 1012.2 |
| 20260508111919 | 8 | 224 | 3.2 | 4.8 | 0.05 | 0.15 | 0.15 | 90 | 1012.1 |
| 20260508111416 | 8 | 224 | 6.4 | 6.4 | 0.00 | 0.13 | 0.13 | 91 | 1012.0 |
| 20260508110913 | 7 | 237 | 6.4 | 9.7 | 0.00 | 0.13 | 0.13 | 91 | 1012.2 |
| 20260508110411 | 7 | 228 | 4.8 | 6.4 | 0.00 | 0.13 | 0.13 | 92 | 1012.1 |
| 20260508105910 | 7 | 217 | 4.8 | 6.4 | 0.00 | 0.13 | 0.13 | 92 | 1012.1 |
| 20260508105406 | 7 | 233 | 3.2 | 4.8 | 0.00 | 0.13 | 0.13 | 92 | 1012.3 |
| 20260508104904 | 7 | 224 | 0.0 | 0.0 | 0.00 | 0.13 | 0.13 | 91 | 1012.1 |
| 20260508104401 | 7 | 225 | 3.2 | 3.2 | 0.00 | 0.13 | 0.13 | 91 | 1012.0 |
| 20260508103858 | 7 | 233 | 3.2 | 4.8 | 0.05 | 0.13 | 0.13 | 91 | 1011.9 |
| 20260508103355 | 7 | 257 | 1.6 | 1.6 | 0.05 | 0.13 | 0.13 | 91 | 1012.1 |
| 20260508102852 | 7 | 315 | 0.0 | 0.0 | 0.00 | 0.13 | 0.13 | 90 | 1012.0 |
| 20260508102350 | 8 | 233 | 3.2 | 3.2 | 0.00 | 0.13 | 0.13 | 89 | 1012.1 |
| 20260508101847 | 8 | 233 | 3.2 | 3.2 | 0.00 | 0.13 | 0.13 | 89 | 1012.1 |
| 20260508101344 | 8 | 233 | 3.2 | 3.2 | 0.00 | 0.13 | 0.13 | 89 | 1011.8 |
| 20260508100842 | 8 | 246 | 4.8 | 8.0 | 0.00 | 0.13 | 0.13 | 89 | 1011.7 |
| 20260508100341 | 8 | 223 | 11.3 | 14.5 | 0.00 | 0.13 | 0.13 | 89 | 1011.9 |
| 20260508095836 | 8 | 223 | 11.3 | 14.5 | 0.00 | 0.13 | 0.13 | 89 | 1011.8 |
| 20260508095334 | 8 | 229 | 9.7 | 9.7 | 0.05 | 0.13 | 0.13 | 89 | 1011.8 |
| 20260508094831 | 8 | 238 | 6.4 | 8.0 | 0.05 | 0.13 | 0.13 | 89 | 1011.7 |
| 20260508094327 | 8 | 242 | 12.9 | 14.5 | 0.00 | 0.10 | 0.10 | 89 | 1012.0 |
| 20260508093825 | 8 | 248 | 3.2 | 11.3 | 0.00 | 0.10 | 0.10 | 89 | 1011.9 |
| 20260508093322 | 8 | 235 | 9.7 | 17.7 | 0.00 | 0.10 | 0.10 | 88 | 1011.7 |
| 20260508092819 | 8 | 226 | 12.9 | 17.7 | 0.00 | 0.10 | 0.10 | 89 | 1011.8 |
| 20260508092317 | 8 | 231 | 14.5 | 16.1 | 0.00 | 0.10 | 0.10 | 89 | 1012.1 |
| 20260508091815 | 8 | 219 | 9.7 | 9.7 | 0.00 | 0.10 | 0.10 | 89 | 1011.9 |
| 20260508091311 | 7 | 223 | 6.4 | 6.4 | 0.05 | 0.10 | 0.10 | 90 | 1012.0 |
| 20260508090809 | 7 | 241 | 4.8 | 6.4 | 0.05 | 0.10 | 0.10 | 91 | 1012.1 |
| 20260508090307 | 7 | 232 | 3.2 | 4.8 | 0.00 | 0.10 | 0.10 | 92 | 1012.1 |
| 20260508085803 | 7 | 232 | 3.2 | 4.8 | 0.00 | 0.10 | 0.10 | 92 | 1012.2 |
| 20260508085300 | 7 | 204 | 3.2 | 3.2 | 0.00 | 0.10 | 0.10 | 91 | 1011.9 |
| 20260508084755 | 7 | 234 | 3.2 | 4.8 | 0.00 | 0.10 | 0.10 | 91 | 1012.0 |
| 20260508084253 | 7 | 233 | 3.2 | 4.8 | 0.00 | 0.10 | 0.10 | 92 | 1011.9 |
| 20260508083751 | 7 | 245 | 4.8 | 4.8 | 0.00 | 0.10 | 0.10 | 92 | 1012.1 |
| 20260508083248 | 7 | 224 | 3.2 | 6.4 | 0.05 | 0.10 | 0.10 | 91 | 1011.9 |
| 20260508082748 | 7 | 241 | 4.8 | 4.8 | 0.05 | 0.10 | 0.10 | 91 | 1012.0 |
| 20260508082246 | 7 | 246 | 3.2 | 6.4 | 0.00 | 0.10 | 0.10 | 91 | 1012.0 |
| 20260508081743 | 7 | 230 | 4.8 | 6.4 | 0.00 | 0.10 | 0.10 | 90 | 1012.0 |
| 20260508081239 | 7 | 230 | 4.8 | 9.7 | 0.00 | 0.10 | 0.10 | 90 | 1012.0 |
| 20260508080737 | 7 | 229 | 8.0 | 9.7 | 0.00 | 0.10 | 0.10 | 91 | 1012.3 |
| 20260508080235 | 7 | 262 | 6.4 | 6.4 | 0.00 | 0.10 | 0.10 | 90 | 1012.1 |
| 20260508075731 | 7 | 244 | 3.2 | 6.4 | 0.05 | 0.10 | 0.10 | 91 | 1012.2 |
| 20260508075228 | 7 | 248 | 8.0 | 8.0 | 0.05 | 0.10 | 0.10 | 91 | 1012.1 |
| 20260508074726 | 7 | 233 | 8.0 | 8.0 | 0.00 | 0.08 | 0.08 | 91 | 1012.1 |
| 20260508074223 | 7 | 214 | 3.2 | 4.8 | 0.00 | 0.08 | 0.08 | 91 | 1011.9 |
| 20260508073719 | 7 | 281 | 0.0 | 3.2 | 0.00 | 0.08 | 0.08 | 91 | 1012.0 |
| 20260508073218 | 7 | 269 | 0.0 | 4.8 | 0.00 | 0.08 | 0.08 | 91 | 1012.0 |
| 20260508072713 | 7 | 269 | 0.0 | 3.2 | 0.00 | 0.08 | 0.08 | 91 | 1012.1 |
| 20260508072210 | 7 | 269 | 0.0 | 4.8 | 0.05 | 0.08 | 0.08 | 91 | 1012.0 |
| 20260508071708 | 7 | 255 | 1.6 | 4.8 | 0.05 | 0.08 | 0.08 | 91 | 1012.1 |
| 20260508071206 | 7 | 217 | 4.8 | 4.8 | 0.00 | 0.08 | 0.08 | 90 | 1012.1 |
| 20260508070703 | 7 | 217 | 4.8 | 4.8 | 0.00 | 0.08 | 0.08 | 90 | 1012.1 |
| 20260508070202 | 7 | 225 | 8.0 | 9.7 | 0.00 | 0.08 | 0.08 | 90 | 1012.0 |
| 20260508065658 | 7 | 203 | 6.4 | 8.0 | 0.00 | 0.08 | 0.08 | 90 | 1012.1 |
| 20260508065156 | 7 | 213 | 4.8 | 6.4 | 0.00 | 0.08 | 0.08 | 90 | 1012.1 |
| 20260508064654 | 7 | 193 | 6.4 | 8.0 | 0.05 | 0.08 | 0.08 | 91 | 1012.1 |
| 20260508064152 | 7 | 193 | 6.4 | 8.0 | 0.05 | 0.08 | 0.08 | 91 | 1012.1 |
| 20260508063649 | 7 | 193 | 6.4 | 8.0 | 0.00 | 0.05 | 0.05 | 91 | 1012.2 |
| 20260508063147 | 7 | 193 | 6.4 | 8.0 | 0.00 | 0.05 | 0.05 | 91 | 1012.1 |
| 20260508062644 | 7 | 193 | 6.4 | 8.0 | 0.00 | 0.05 | 0.05 | 91 | 1012.2 |
| 20260508062141 | 7 | 204 | 6.4 | 8.0 | 0.00 | 0.05 | 0.05 | 91 | 1012.3 |
| 20260508061638 | 7 | 194 | 4.8 | 9.7 | 0.05 | 0.05 | 0.05 | 92 | 1012.2 |
| 20260508061135 | 7 | 183 | 4.8 | 4.8 | 0.00 | 0.05 | 0.05 | 93 | 1012.3 |
| 20260508060632 | 7 | 208 | 1.6 | 3.2 | 0.00 | 0.05 | 0.05 | 94 | 1012.3 |
| 20260508060129 | 7 | 190 | 1.6 | 3.2 | 0.00 | 0.05 | 0.05 | 94 | 1012.4 |
| 20260508055624 | 7 | 199 | 4.8 | 4.8 | 0.00 | 0.05 | 0.05 | 94 | 1012.3 |
| 20260508055122 | 7 | 164 | 3.2 | 3.2 | 0.05 | 0.05 | 0.05 | 94 | 1012.4 |
| 20260508054618 | 7 | 164 | 3.2 | 4.8 | 0.05 | 0.05 | 0.05 | 94 | 1012.4 |
| 20260508054116 | 7 | 166 | 4.8 | 4.8 | 0.00 | 0.05 | 0.05 | 94 | 1012.4 |